createdAt,value
2018-05-14T00:00:23.596Z,98929.17
2018-05-14T00:02:01.735Z,98932.52
2018-05-14T00:03:39.801Z,98930.02
2018-05-14T00:05:18.918Z,98932.63
2018-05-14T00:06:57.076Z,98923.66
2018-05-14T00:08:33.018Z,98929.85
2018-05-14T00:10:11.135Z,98931.55
2018-05-14T00:11:49.246Z,98930.50
2018-05-14T00:13:29.462Z,98931.88
2018-05-14T00:15:06.849Z,98937.11
2018-05-14T00:16:45.043Z,98938.73
2018-05-14T00:18:22.044Z,98940.78
2018-05-14T00:20:01.908Z,98934.58
2018-05-14T00:21:40.707Z,98937.68
2018-05-14T00:23:18.556Z,98933.13
2018-05-14T00:24:55.136Z,98940.95
2018-05-14T00:26:32.353Z,98938.03
2018-05-14T00:28:10.136Z,98944.00
2018-05-14T00:29:49.422Z,98938.89
2018-05-14T00:31:27.725Z,98944.79
2018-05-14T00:33:06.163Z,98938.00
2018-05-14T00:36:25.435Z,98951.42
2018-05-14T00:38:06.221Z,98946.19
2018-05-14T00:39:47.205Z,98952.07
2018-05-14T00:41:25.680Z,98947.84
2018-05-14T00:43:03.163Z,98952.13
2018-05-14T00:44:40.859Z,98951.67
2018-05-14T00:46:18.606Z,98949.02
2018-05-14T00:47:59.475Z,98947.09
2018-05-14T00:49:36.822Z,98942.59
2018-05-14T00:51:15.091Z,98945.41
2018-05-14T00:52:53.009Z,98945.94
2018-05-14T00:54:31.899Z,98942.14
2018-05-14T00:56:10.268Z,98944.67
2018-05-14T00:57:47.345Z,98942.97
2018-05-14T00:59:26.668Z,98945.20
2018-05-14T01:01:05.031Z,98944.70
2018-05-14T01:02:44.213Z,98942.09
2018-05-14T01:04:21.338Z,98946.17
2018-05-14T01:06:00.555Z,98940.77
2018-05-14T01:07:37.296Z,98939.35
2018-05-14T01:09:16.908Z,98943.46
2018-05-14T01:10:53.632Z,98941.16
2018-05-14T01:12:30.246Z,98942.86
2018-05-14T01:14:10.207Z,98941.08
2018-05-14T01:15:48.584Z,98931.02
2018-05-14T01:17:27.011Z,98932.55
2018-05-14T01:19:05.710Z,98933.64
2018-05-14T01:20:42.760Z,98929.09
2018-05-14T01:22:19.433Z,98927.05
2018-05-14T01:23:57.707Z,98931.21
2018-05-14T01:25:36.034Z,98931.11
2018-05-14T01:27:15.544Z,98936.64
2018-05-14T01:28:52.520Z,98941.21
2018-05-14T01:30:30.660Z,98941.09
2018-05-14T01:32:09.109Z,98943.00
2018-05-14T01:33:47.712Z,98948.44
2018-05-14T01:35:25.627Z,98949.92
2018-05-14T01:37:04.817Z,98946.17
2018-05-14T01:38:47.784Z,98947.75
2018-05-14T01:40:25.719Z,98950.95
2018-05-14T01:42:05.362Z,98943.91
2018-05-14T01:43:45.269Z,98949.64
2018-05-14T01:45:22.486Z,98948.65
2018-05-14T01:47:00.494Z,98951.13
2018-05-14T01:48:39.058Z,98948.53
2018-05-14T01:50:18.102Z,98948.53
2018-05-14T01:51:56.096Z,98948.89
2018-05-14T01:53:33.061Z,98959.38
2018-05-14T01:55:11.777Z,98958.41
2018-05-14T01:56:50.461Z,98955.27
2018-05-14T01:58:27.848Z,98955.23
2018-05-14T02:00:06.953Z,98949.09
2018-05-14T02:01:46.928Z,98946.48
2018-05-14T02:03:24.688Z,98945.14
2018-05-14T02:05:02.950Z,98945.80
2018-05-14T02:06:39.995Z,98944.89
2018-05-14T02:08:18.986Z,98944.90
2018-05-14T02:09:57.421Z,98946.28
2018-05-14T02:11:35.699Z,98948.34
2018-05-14T02:13:14.445Z,98948.31
2018-05-14T02:14:53.627Z,98948.98
2018-05-14T02:16:31.518Z,98946.80
2018-05-14T02:18:10.193Z,98942.34
2018-05-14T02:19:47.798Z,98945.95
2018-05-14T02:21:26.155Z,98945.98
2018-05-14T02:23:03.000Z,98948.38
2018-05-14T02:24:42.235Z,98945.85
2018-05-14T02:26:19.290Z,98951.95
2018-05-14T02:27:57.295Z,98948.11
2018-05-14T02:29:34.114Z,98951.31
2018-05-14T02:31:12.302Z,98953.25
2018-05-14T02:32:48.861Z,98954.89
2018-05-14T02:34:28.763Z,98955.25
2018-05-14T02:36:05.948Z,98949.22
2018-05-14T02:37:43.907Z,98950.53
2018-05-14T02:39:22.251Z,98949.44
2018-05-14T02:41:00.700Z,98944.70
2018-05-14T02:42:37.659Z,98947.55
2018-05-14T02:44:15.922Z,98944.45
2018-05-14T02:45:56.555Z,98951.38
2018-05-14T02:47:37.356Z,98957.69
2018-05-14T02:49:16.471Z,98956.47
2018-05-14T02:50:56.642Z,98957.81
2018-05-14T02:52:35.443Z,98954.85
2018-05-14T02:54:14.049Z,98963.78
2018-05-14T02:55:50.348Z,98964.78
2018-05-14T02:57:29.545Z,98962.00
2018-05-14T02:59:06.611Z,98962.23
2018-05-14T03:00:48.765Z,98961.52
2018-05-14T03:02:25.920Z,98966.73
2018-05-14T03:04:03.641Z,98960.81
2018-05-14T03:05:42.997Z,98967.00
2018-05-14T03:07:22.943Z,98965.41
2018-05-14T03:08:59.316Z,98963.27
2018-05-14T03:10:37.720Z,98965.62
2018-05-14T03:12:15.890Z,98973.21
2018-05-14T03:13:54.997Z,98968.64
2018-05-14T03:15:33.352Z,98974.92
2018-05-14T03:17:10.845Z,98976.48
2018-05-14T03:18:47.751Z,98976.18
2018-05-14T03:20:30.049Z,98976.05
2018-05-14T03:22:10.040Z,98974.17
2018-05-14T03:23:50.359Z,98983.44
2018-05-14T03:25:28.155Z,98978.31
2018-05-14T03:27:05.751Z,98979.20
2018-05-14T03:28:42.917Z,98979.20
2018-05-14T03:30:20.352Z,98980.87
2018-05-14T03:31:58.460Z,98977.08
2018-05-14T03:33:37.433Z,98982.47
2018-05-14T03:35:15.811Z,98975.17
2018-05-14T03:36:53.136Z,98979.75
2018-05-14T03:38:31.863Z,98977.73
2018-05-14T03:40:11.356Z,98983.42
2018-05-14T03:41:49.225Z,98983.42
2018-05-14T03:43:27.085Z,98990.52
2018-05-14T03:46:44.236Z,98988.45
2018-05-14T03:48:23.808Z,98989.41
2018-05-14T03:50:01.887Z,98990.25
2018-05-14T03:51:40.104Z,98984.97
2018-05-14T03:53:20.787Z,98986.32
2018-05-14T03:54:59.468Z,98990.38
2018-05-14T03:56:36.336Z,98991.08
2018-05-14T03:58:31.668Z,98988.42
2018-05-14T04:00:26.029Z,98989.73
2018-05-14T04:02:30.273Z,98983.27
2018-05-14T04:06:26.966Z,98986.74
2018-05-14T04:08:04.499Z,98989.63
2018-05-14T04:09:43.516Z,98981.17
2018-05-14T04:11:25.261Z,98982.30
2018-05-14T04:13:03.328Z,98983.56
2018-05-14T04:14:41.527Z,98990.48
2018-05-14T04:16:18.855Z,98990.42
2018-05-14T04:17:57.085Z,98989.26
2018-05-14T04:19:38.727Z,98983.33
2018-05-14T04:21:17.405Z,98982.95
2018-05-14T04:22:53.430Z,98988.56
2018-05-14T04:24:31.675Z,98988.02
2018-05-14T04:26:09.134Z,98987.53
2018-05-14T04:27:47.400Z,98988.98
2018-05-14T04:29:25.854Z,98991.20
2018-05-14T04:31:04.623Z,98990.78
2018-05-14T04:32:43.269Z,98988.11
2018-05-14T04:34:20.697Z,98985.92
2018-05-14T04:35:56.212Z,98993.29
2018-05-14T04:37:35.307Z,98998.25
2018-05-14T04:39:12.104Z,98995.16
2018-05-14T04:40:55.599Z,99001.05
2018-05-14T04:42:35.510Z,99004.45
2018-05-14T04:44:12.039Z,99004.84
2018-05-14T04:45:50.580Z,99005.58
2018-05-14T04:47:30.656Z,99004.64
2018-05-14T04:49:09.254Z,99004.52
2018-05-14T04:50:46.540Z,99003.44
2018-05-14T04:52:24.895Z,99006.02
2018-05-14T04:54:00.901Z,99007.22
2018-05-14T04:55:41.106Z,99008.22
2018-05-14T04:57:21.819Z,99007.58
2018-05-14T04:58:59.777Z,99009.32
2018-05-14T05:00:36.491Z,99015.58
2018-05-14T05:02:13.510Z,99014.38
2018-05-14T05:03:50.575Z,99021.30
2018-05-14T05:05:27.582Z,99021.23
2018-05-14T05:07:07.167Z,99023.17
2018-05-14T05:08:47.812Z,99022.27
2018-05-14T05:10:26.971Z,99025.84
2018-05-14T05:12:05.677Z,99022.83
2018-05-14T05:13:44.768Z,99021.87
2018-05-14T05:15:23.391Z,99029.20
2018-05-14T05:17:03.248Z,99030.88
2018-05-14T05:18:42.435Z,99027.33
2018-05-14T05:20:20.420Z,99016.80
2018-05-14T05:21:56.913Z,99023.61
2018-05-14T05:23:34.111Z,99025.83
2018-05-14T05:25:09.906Z,99029.73
2018-05-14T05:26:45.094Z,99026.55
2018-05-14T05:28:20.170Z,99024.92
2018-05-14T05:29:58.444Z,99024.34
2018-05-14T05:31:36.038Z,99024.92
2018-05-14T05:33:13.071Z,99026.60
2018-05-14T05:34:50.655Z,99026.20
2018-05-14T05:36:30.329Z,99024.64
2018-05-14T05:38:09.704Z,99023.41
2018-05-14T05:39:47.930Z,99019.03
2018-05-14T05:41:25.897Z,99012.83
2018-05-14T05:43:03.628Z,99019.39
2018-05-14T05:44:40.793Z,99018.31
2018-05-14T05:46:21.941Z,99020.54
2018-05-14T05:47:58.369Z,99017.34
2018-05-14T05:49:35.807Z,99023.30
2018-05-14T05:51:12.500Z,99021.48
2018-05-14T05:52:52.788Z,99018.11
2018-05-14T05:54:30.165Z,99022.91
2018-05-14T05:56:07.015Z,99022.84
2018-05-14T05:57:46.301Z,99024.66
2018-05-14T05:59:23.941Z,99022.78
2018-05-14T06:01:02.247Z,99023.38
2018-05-14T06:02:37.773Z,99022.89
2018-05-14T06:04:14.485Z,99018.08
2018-05-14T06:05:51.878Z,99021.21
2018-05-14T06:07:29.774Z,99028.69
2018-05-14T06:09:07.667Z,99030.11
2018-05-14T06:10:45.531Z,99024.34
2018-05-14T06:12:25.177Z,99026.86
2018-05-14T06:14:05.009Z,99023.81
2018-05-14T06:15:45.076Z,99021.07
2018-05-14T06:17:22.905Z,99023.90
2018-05-14T06:19:02.020Z,99022.74
2018-05-14T06:20:38.083Z,99021.50
2018-05-14T06:22:15.962Z,99027.32
2018-05-14T06:23:53.026Z,99028.41
2018-05-14T06:25:31.051Z,99019.19
2018-05-14T06:27:09.002Z,99032.56
2018-05-14T06:28:46.283Z,99024.34
2018-05-14T06:30:23.998Z,99024.09
2018-05-14T06:32:02.215Z,99017.89
2018-05-14T06:33:42.119Z,99016.73
2018-05-14T06:35:18.535Z,99023.39
2018-05-14T06:36:55.444Z,99018.08
2018-05-14T06:38:32.112Z,99024.54
2018-05-14T06:40:08.699Z,99028.59
2018-05-14T06:41:45.989Z,99030.33
2018-05-14T06:43:23.264Z,99042.45
2018-05-14T06:45:00.358Z,99033.56
2018-05-14T06:46:36.880Z,99037.45
2018-05-14T06:48:15.524Z,99032.80
2018-05-14T06:49:54.132Z,99032.61
2018-05-14T06:51:31.668Z,99040.41
2018-05-14T06:53:08.356Z,99042.27
2018-05-14T06:54:47.426Z,99034.42
2018-05-14T06:56:24.898Z,99043.16
2018-05-14T06:58:02.475Z,99032.48
2018-05-14T06:59:41.147Z,99031.88
2018-05-14T07:01:19.267Z,99038.53
2018-05-14T07:02:57.461Z,99036.38
2018-05-14T07:04:36.127Z,99030.55
2018-05-14T07:06:14.841Z,99030.66
2018-05-14T07:07:52.562Z,99032.30
2018-05-14T07:09:31.132Z,99034.16
2018-05-14T07:11:09.723Z,99032.23
2018-05-14T07:12:45.648Z,99030.02
2018-05-14T07:14:23.169Z,99034.16
2018-05-14T07:16:03.066Z,99037.02
2018-05-14T07:17:40.873Z,99031.35
2018-05-14T07:19:17.648Z,99029.63
2018-05-14T07:20:56.750Z,99028.92
2018-05-14T07:22:35.436Z,99032.64
2018-05-14T07:24:13.069Z,99032.20
2018-05-14T07:25:49.871Z,99024.81
2018-05-14T07:27:27.304Z,99031.70
2018-05-14T07:29:06.372Z,99040.03
2018-05-14T07:30:44.841Z,99043.03
2018-05-14T07:32:22.032Z,99043.75
2018-05-14T07:34:00.303Z,99049.95
2018-05-14T07:35:36.108Z,99041.84
2018-05-14T07:37:14.526Z,99040.77
2018-05-14T07:38:53.245Z,99037.48
2018-05-14T07:40:31.110Z,99036.57
2018-05-14T07:42:07.881Z,99048.48
2018-05-14T07:43:46.304Z,99041.06
2018-05-14T07:45:24.318Z,99040.64
2018-05-14T07:47:01.942Z,99034.27
2018-05-14T07:48:37.005Z,99042.38
2018-05-14T07:50:13.981Z,99041.75
2018-05-14T07:51:56.172Z,99041.41
2018-05-14T07:53:33.426Z,99038.65
2018-05-14T07:55:11.389Z,99041.80
2018-05-14T07:56:49.622Z,99047.15
2018-05-14T07:58:28.041Z,99050.09
2018-05-14T08:00:06.079Z,99045.66
2018-05-14T08:01:44.846Z,99042.91
2018-05-14T08:03:22.848Z,99042.25
2018-05-14T08:04:59.340Z,99046.33
2018-05-14T08:06:37.679Z,99047.30
2018-05-14T08:08:13.939Z,99048.58
2018-05-14T08:09:51.028Z,99051.31
2018-05-14T08:11:28.868Z,99049.50
2018-05-14T08:13:08.398Z,99049.39
2018-05-14T08:14:48.435Z,99056.70
2018-05-14T08:16:26.684Z,99051.80
2018-05-14T08:18:04.766Z,99059.72
2018-05-14T08:19:42.914Z,99056.77
2018-05-14T08:21:19.213Z,99049.54
2018-05-14T08:22:55.256Z,99054.28
2018-05-14T08:24:32.862Z,99047.02
2018-05-14T08:26:12.237Z,99051.55
2018-05-14T08:27:49.884Z,99053.82
2018-05-14T08:29:27.764Z,99053.32
2018-05-14T08:31:06.612Z,99051.17
2018-05-14T08:32:43.651Z,99049.14
2018-05-14T08:34:20.346Z,99049.97
2018-05-14T08:35:57.135Z,99047.53
2018-05-14T08:37:36.393Z,99045.38
2018-05-14T08:39:13.847Z,99055.42
2018-05-14T08:40:49.662Z,99050.08
2018-05-14T08:42:28.515Z,99062.41
2018-05-14T08:44:06.170Z,99042.42
2018-05-14T08:45:42.516Z,99041.23
2018-05-14T08:47:22.155Z,99048.67
2018-05-14T08:49:00.414Z,99048.92
2018-05-14T08:50:36.572Z,99050.41
2018-05-14T08:52:15.265Z,99056.48
2018-05-14T08:53:53.835Z,99047.57
2018-05-14T08:55:32.318Z,99053.48
2018-05-14T08:57:09.069Z,99050.44
2018-05-14T08:58:46.685Z,99047.05
2018-05-14T09:00:22.961Z,99040.11
2018-05-14T09:02:00.136Z,99037.84
2018-05-14T09:03:38.250Z,99042.89
2018-05-14T09:05:15.800Z,99042.63
2018-05-14T09:06:55.471Z,99035.84
2018-05-14T09:08:34.842Z,99037.45
2018-05-14T09:10:14.611Z,99049.35
2018-05-14T09:11:59.007Z,99039.48
2018-05-14T09:13:38.884Z,99034.78
2018-05-14T09:15:15.558Z,99042.39
2018-05-14T09:16:52.937Z,99047.16
2018-05-14T09:18:32.164Z,99047.80
2018-05-14T09:20:08.258Z,99042.69
2018-05-14T09:21:45.378Z,99044.15
2018-05-14T09:23:23.550Z,99041.94
2018-05-14T09:25:01.263Z,99042.06
2018-05-14T09:26:39.732Z,99031.17
2018-05-14T09:28:15.678Z,99042.66
2018-05-14T09:29:56.093Z,99046.05
2018-05-14T09:31:34.361Z,99041.41
2018-05-14T09:33:13.439Z,99041.82
2018-05-14T09:34:53.033Z,99045.15
2018-05-14T09:36:30.659Z,99048.59
2018-05-14T09:38:07.267Z,99040.86
2018-05-14T09:39:44.381Z,99060.47
2018-05-14T09:41:20.267Z,99040.25
2018-05-14T09:42:59.433Z,99036.72
2018-05-14T09:44:36.821Z,99034.59
2018-05-14T09:46:15.337Z,99031.79
2018-05-14T09:47:53.828Z,99043.79
2018-05-14T09:49:30.466Z,99035.83
2018-05-14T09:51:07.815Z,99026.37
2018-05-14T09:52:43.883Z,99035.66
2018-05-14T09:54:21.551Z,99028.88
2018-05-14T09:55:59.346Z,99030.55
2018-05-14T09:57:37.329Z,99036.80
2018-05-14T09:59:14.090Z,99025.66
2018-05-14T10:00:52.301Z,99029.40
2018-05-14T10:02:30.465Z,99028.70
2018-05-14T10:04:07.909Z,99029.52
2018-05-14T10:05:43.640Z,99031.98
2018-05-14T10:07:21.383Z,99021.05
2018-05-14T10:08:59.701Z,99024.97
2018-05-14T10:10:42.854Z,99032.50
2018-05-14T10:12:21.473Z,99022.90
2018-05-14T10:13:58.591Z,99025.07
2018-05-14T10:15:38.785Z,99033.30
2018-05-14T10:17:16.371Z,99034.58
2018-05-14T10:18:54.789Z,99025.71
2018-05-14T10:20:33.057Z,99022.92
2018-05-14T10:22:13.072Z,99024.27
2018-05-14T10:23:50.912Z,99022.30
2018-05-14T10:25:28.182Z,99018.69
2018-05-14T10:27:05.702Z,99024.50
2018-05-14T10:28:44.423Z,99024.59
2018-05-14T10:30:22.226Z,99026.23
2018-05-14T10:32:01.250Z,99039.73
2018-05-14T10:33:37.225Z,99031.58
2018-05-14T10:35:13.871Z,99032.02
2018-05-14T10:36:51.149Z,99028.31
2018-05-14T10:38:28.816Z,99034.28
2018-05-14T10:40:04.692Z,99035.20
2018-05-14T10:41:44.036Z,99031.09
2018-05-14T10:43:21.431Z,99037.38
2018-05-14T10:44:58.643Z,99026.83
2018-05-14T10:46:36.234Z,99039.03
2018-05-14T10:48:14.313Z,99022.95
2018-05-14T10:49:50.697Z,99027.90
2018-05-14T10:51:27.582Z,99036.64
2018-05-14T10:53:03.871Z,99029.74
2018-05-14T10:54:39.660Z,99032.42
2018-05-14T10:56:16.914Z,99028.20
2018-05-14T10:57:54.359Z,99035.94
2018-05-14T10:59:32.230Z,99034.19
2018-05-14T11:01:11.267Z,99031.17
2018-05-14T11:02:49.067Z,99029.21
2018-05-14T11:04:27.113Z,99033.17
2018-05-14T11:06:07.128Z,99039.16
2018-05-14T11:07:45.599Z,99031.02
2018-05-14T11:09:24.180Z,99042.89
2018-05-14T11:11:02.861Z,99039.78
2018-05-14T11:12:40.988Z,99035.83
2018-05-14T11:14:19.269Z,99034.48
2018-05-14T11:15:55.977Z,99034.11
2018-05-14T11:17:33.313Z,99056.11
2018-05-14T11:19:10.609Z,99045.12
2018-05-14T11:20:48.092Z,99036.48
2018-05-14T11:22:26.109Z,99031.95
2018-05-14T11:24:05.126Z,99040.50
2018-05-14T11:25:41.434Z,99040.70
2018-05-14T11:27:17.865Z,99072.80
2018-05-14T11:28:56.534Z,99036.75
2018-05-14T11:30:32.931Z,99035.34
2018-05-14T11:32:11.726Z,99039.69
2018-05-14T11:33:50.153Z,99052.25
2018-05-14T11:35:30.819Z,99040.62
2018-05-14T11:37:08.413Z,99038.14
2018-05-14T11:38:45.289Z,99033.47
2018-05-14T11:40:26.478Z,99029.47
2018-05-14T11:42:04.971Z,99045.75
2018-05-14T11:43:44.712Z,99027.60
2018-05-14T11:45:22.933Z,99046.39
2018-05-14T11:47:01.305Z,99040.39
2018-05-14T11:48:36.575Z,99052.80
2018-05-14T11:50:13.846Z,99045.27
2018-05-14T11:51:49.846Z,99034.22
2018-05-14T11:53:26.774Z,99049.59
2018-05-14T11:55:03.851Z,99039.78
2018-05-14T11:56:41.641Z,99045.55
2018-05-14T11:58:21.121Z,99054.44
2018-05-14T11:59:59.416Z,99047.33
2018-05-14T12:01:37.835Z,99039.78
2018-05-14T12:03:16.276Z,99047.61
2018-05-14T12:04:53.906Z,99057.84
2018-05-14T12:06:31.838Z,99058.58
2018-05-14T12:08:11.570Z,99041.14
2018-05-14T12:09:51.077Z,99060.03
2018-05-14T12:11:29.755Z,99065.69
2018-05-14T12:13:08.570Z,99051.64
2018-05-14T12:14:49.799Z,99058.46
2018-05-14T12:16:28.279Z,99046.30
2018-05-14T12:18:16.428Z,99034.80
2018-05-14T12:19:54.886Z,99047.73
2018-05-14T12:23:27.861Z,99051.61
2018-05-14T12:25:06.332Z,99063.81
2018-05-14T12:26:45.012Z,99047.61
2018-05-14T12:28:25.343Z,99035.33
2018-05-14T12:30:10.240Z,99056.56
2018-05-14T12:33:40.510Z,99057.94
2018-05-14T13:21:37.706Z,99044.22
2018-05-14T13:23:15.426Z,99038.53
2018-05-14T13:26:46.144Z,99047.52
2018-05-14T13:34:20.067Z,99032.75
2018-05-14T13:35:57.432Z,99048.11
2018-05-14T13:37:35.341Z,99041.83
2018-05-14T13:39:12.009Z,99057.94
2018-05-14T13:40:50.754Z,99047.31
2018-05-14T13:42:30.132Z,99044.51
2018-05-14T13:44:08.625Z,99042.24
2018-05-14T13:45:45.993Z,99049.07
2018-05-14T13:47:25.042Z,99043.97
2018-05-14T13:49:03.824Z,99045.44
2018-05-14T13:50:43.289Z,99042.63
2018-05-14T13:52:28.704Z,99055.03
2018-05-14T13:54:08.252Z,99055.22
2018-05-14T13:55:46.537Z,99062.06
2018-05-14T13:59:08.963Z,99062.30
2018-05-14T14:01:00.207Z,99048.23
2018-05-14T14:02:38.661Z,99051.34
2018-05-14T14:04:41.312Z,99059.05
2018-05-14T14:06:18.437Z,99059.09
2018-05-14T14:07:55.445Z,99053.19
2018-05-14T14:09:37.149Z,99053.73
2018-05-14T14:22:59.669Z,99060.41
2018-05-14T14:24:47.417Z,99059.82
2018-05-14T14:26:32.322Z,99064.97
2018-05-14T14:28:14.590Z,99071.17
2018-05-14T14:29:51.794Z,99072.97
2018-05-14T14:31:28.894Z,99065.86
2018-05-14T14:33:09.198Z,99063.30
2018-05-14T14:34:47.924Z,99065.95
2018-05-14T14:36:26.022Z,99065.45
2018-05-14T14:38:05.459Z,99060.59
2018-05-14T14:39:44.555Z,99051.30
2018-05-14T14:41:23.075Z,99058.41
2018-05-14T14:43:01.396Z,99059.16
2018-05-14T14:44:38.399Z,99047.38
2018-05-14T14:46:13.963Z,99057.52
2018-05-14T14:47:49.040Z,99065.77
2018-05-14T14:49:26.727Z,99040.98
2018-05-14T14:51:05.025Z,99057.08
2018-05-14T14:52:43.352Z,99053.06
2018-05-14T14:54:20.516Z,99057.92
2018-05-14T14:55:58.286Z,99057.91
2018-05-14T14:57:37.952Z,99059.44
2018-05-14T14:59:16.328Z,99058.11
2018-05-14T15:00:55.697Z,99062.00
2018-05-14T15:02:33.890Z,99051.52
2018-05-14T15:04:10.571Z,99060.36
2018-05-14T15:05:48.268Z,99063.14
2018-05-14T15:07:25.094Z,99059.62
2018-05-14T15:09:01.977Z,99067.16
2018-05-14T15:10:40.859Z,99068.63
2018-05-14T15:12:17.857Z,99062.01
2018-05-14T15:13:55.746Z,99062.13
2018-05-14T15:15:34.756Z,99068.61
2018-05-14T15:17:16.512Z,99057.86
2018-05-14T15:18:56.588Z,99066.14
2018-05-14T15:20:33.856Z,99062.92
2018-05-14T15:22:11.575Z,99076.13
2018-05-14T15:23:48.818Z,99075.82
2018-05-14T15:25:27.274Z,99074.19
2018-05-14T15:27:05.904Z,99078.50
2018-05-14T15:28:44.224Z,99074.27
2018-05-14T15:30:22.276Z,99074.55
2018-05-14T15:32:01.104Z,99071.78
2018-05-14T15:33:38.827Z,99075.56
2018-05-14T15:35:20.228Z,99089.82
2018-05-14T15:36:58.325Z,99076.37
2018-05-14T15:38:35.614Z,99076.78
2018-05-14T15:40:12.381Z,99073.48
2018-05-14T15:41:50.496Z,99073.30
2018-05-14T15:43:26.751Z,99086.11
2018-05-14T15:45:06.377Z,99074.98
2018-05-14T15:46:45.899Z,99084.84
2018-05-14T15:48:23.365Z,99076.39
2018-05-14T15:50:02.905Z,99079.27
2018-05-14T15:51:40.287Z,99098.35
2018-05-14T15:53:17.724Z,99084.38
2018-05-14T15:54:55.048Z,99086.70
2018-05-14T15:56:34.405Z,99090.70
2018-05-14T15:58:15.290Z,99089.39
2018-05-14T15:59:53.868Z,99092.64
2018-05-14T16:01:31.172Z,99097.33
2018-05-14T16:03:07.929Z,99082.19
2018-05-14T16:04:44.052Z,99097.31
2018-05-14T16:06:22.682Z,99080.34
2018-05-14T16:08:00.875Z,99084.02
2018-05-14T16:09:36.672Z,99094.97
2018-05-14T16:11:13.652Z,99084.41
2018-05-14T16:12:50.666Z,99097.42
2018-05-14T16:14:30.410Z,99098.77
2018-05-14T16:16:10.188Z,99086.38
2018-05-14T16:17:47.599Z,99087.55
2018-05-14T16:19:26.088Z,99085.41
2018-05-14T16:21:04.074Z,99104.70
2018-05-14T16:22:42.378Z,99095.88
2018-05-14T16:24:26.136Z,99085.70
2018-05-14T16:26:04.447Z,99081.49
2018-05-14T16:27:42.928Z,99087.09
2018-05-14T16:29:20.795Z,99093.11
2018-05-14T16:30:58.446Z,99087.33
2018-05-14T16:32:37.664Z,99089.72
2018-05-14T16:34:13.757Z,99097.45
2018-05-14T16:35:50.748Z,99090.73
2018-05-14T16:37:30.890Z,99108.59
2018-05-14T16:39:10.237Z,99115.74
2018-05-14T16:40:46.462Z,99103.27
2018-05-14T16:42:26.434Z,99107.11
2018-05-14T16:44:16.430Z,99105.30
2018-05-14T16:45:54.602Z,99102.16
2018-05-14T16:47:32.352Z,99108.84
2018-05-14T16:49:11.345Z,99105.03
2018-05-14T16:50:46.913Z,99102.88
2018-05-14T16:52:25.006Z,99097.71
2018-05-14T16:54:04.252Z,99105.41
2018-05-14T16:55:42.604Z,99104.36
2018-05-14T16:57:19.808Z,99112.25
2018-05-14T16:59:01.200Z,99106.87
2018-05-14T17:00:40.222Z,99107.70
2018-05-14T17:02:17.031Z,99104.52
2018-05-14T17:03:55.740Z,99102.36
2018-05-14T17:05:34.023Z,99114.59
2018-05-14T17:07:12.323Z,99111.42
2018-05-14T17:08:51.162Z,99104.41
2018-05-14T17:10:30.389Z,99110.79
2018-05-14T17:12:10.467Z,99114.30
2018-05-14T17:13:51.107Z,99118.11
2018-05-14T17:15:28.451Z,99112.87
2018-05-14T17:17:08.292Z,99113.69
2018-05-14T17:18:47.381Z,99114.63
2018-05-14T17:20:23.761Z,99112.97
2018-05-14T17:22:01.858Z,99117.95
2018-05-14T17:23:38.953Z,99120.53
2018-05-14T17:25:17.050Z,99128.52
2018-05-14T17:26:53.969Z,99115.16
2018-05-14T17:28:31.513Z,99117.70
2018-05-14T17:30:10.919Z,99124.59
2018-05-14T17:31:47.914Z,99117.14
2018-05-14T17:33:25.278Z,99126.94
2018-05-14T17:35:01.229Z,99124.47
2018-05-14T17:36:39.311Z,99126.14
2018-05-14T17:38:16.381Z,99117.59
2018-05-14T17:39:55.179Z,99115.95
2018-05-14T17:41:33.354Z,99119.38
2018-05-14T17:43:14.480Z,99117.52
2018-05-14T17:44:51.739Z,99122.42
2018-05-14T17:46:28.758Z,99132.84
2018-05-14T17:48:08.806Z,99127.70
2018-05-14T17:49:48.168Z,99136.83
2018-05-14T17:51:26.293Z,99125.77
2018-05-14T17:53:01.996Z,99132.77
2018-05-14T17:54:38.601Z,99135.86
2018-05-14T17:56:16.339Z,99142.67
2018-05-14T17:58:18.999Z,99136.83
2018-05-14T18:00:01.110Z,99137.97
2018-05-14T18:01:39.459Z,99132.37
2018-05-14T18:03:24.499Z,99140.44
2018-05-14T18:07:10.297Z,99143.88
2018-05-14T18:08:55.359Z,99146.45
2018-05-14T18:10:33.983Z,99139.86
2018-05-14T18:12:10.181Z,99147.02
2018-05-14T18:13:46.791Z,99148.05
2018-05-14T18:15:25.371Z,99154.14
2018-05-14T18:17:05.113Z,99153.29
2018-05-14T18:18:45.883Z,99157.55
2018-05-14T18:20:31.207Z,99158.45
2018-05-14T18:35:00.868Z,99172.80
2018-05-14T18:36:41.804Z,99167.69
2018-05-14T18:38:21.307Z,99177.36
2018-05-14T18:39:58.336Z,99172.80
2018-05-14T18:41:36.801Z,99171.53
2018-05-14T18:43:14.796Z,99168.67
2018-05-14T18:44:53.541Z,99169.51
2018-05-14T18:46:30.877Z,99178.49
2018-05-14T18:48:10.527Z,99183.61
2018-05-14T18:49:47.717Z,99178.47
2018-05-14T18:51:25.090Z,99190.06
2018-05-14T18:53:02.725Z,99187.34
2018-05-14T18:54:41.429Z,99187.27
2018-05-14T18:56:22.244Z,99188.44
2018-05-14T18:57:59.665Z,99198.11
2018-05-14T18:59:36.995Z,99195.70
2018-05-14T19:01:19.749Z,99204.94
2018-05-14T19:03:02.484Z,99199.27
2018-05-14T19:04:47.284Z,99203.86
2018-05-14T19:06:30.104Z,99206.77
2018-05-14T19:08:12.819Z,99206.70
2018-05-14T19:09:52.858Z,99207.36
2018-05-14T19:11:41.451Z,99208.71
2018-05-14T19:13:28.510Z,99205.53
2018-05-14T19:17:09.822Z,99213.95
2018-05-14T19:20:33.442Z,99215.95
2018-05-14T19:22:22.534Z,99221.59
2018-05-14T19:24:13.376Z,99224.19
2018-05-14T19:25:54.732Z,99219.28
2018-05-14T19:27:39.960Z,99223.60
2018-05-14T19:29:23.435Z,99219.17
2018-05-14T19:31:02.958Z,99226.09
2018-05-14T19:32:42.104Z,99227.84
2018-05-14T19:34:27.300Z,99222.18
2018-05-14T19:36:08.013Z,99226.67
2018-05-14T19:37:46.588Z,99228.08
2018-05-14T19:41:43.144Z,99226.17
2018-05-14T19:43:18.219Z,99235.72
2018-05-14T19:44:53.738Z,99226.02
2018-05-14T19:46:29.630Z,99232.24
2018-05-14T19:48:06.196Z,99226.94
2018-05-14T19:49:41.358Z,99225.35
2018-05-14T19:51:16.546Z,99229.59
2018-05-14T19:52:51.648Z,99228.41
2018-05-14T19:54:28.845Z,99231.30
2018-05-14T19:56:06.092Z,99229.56
2018-05-14T19:57:42.167Z,99226.16
2018-05-14T19:59:18.275Z,99232.66
2018-05-14T20:00:55.183Z,99230.38
2018-05-14T20:02:31.980Z,99234.55
2018-05-14T20:04:07.863Z,99231.73
2018-05-14T20:05:44.010Z,99231.77
2018-05-14T20:07:19.962Z,99224.42
2018-05-14T20:08:55.527Z,99231.41
2018-05-14T20:10:31.281Z,99233.24
2018-05-14T20:12:07.289Z,99232.84
2018-05-14T20:13:42.758Z,99232.88
2018-05-14T20:15:17.850Z,99233.00
2018-05-14T20:16:52.946Z,99229.41
2018-05-14T20:18:28.915Z,99231.18
2018-05-14T20:20:06.628Z,99235.39
2018-05-14T20:21:41.665Z,99235.95
2018-05-14T20:23:18.134Z,99242.52
2018-05-14T20:24:54.882Z,99233.55
2018-05-14T20:26:30.442Z,99235.62
2018-05-14T20:28:05.984Z,99239.03
2018-05-14T20:29:41.825Z,99233.39
2018-05-14T20:31:16.941Z,99238.52
2018-05-14T20:32:52.002Z,99239.78
2018-05-14T20:34:27.657Z,99240.45
2018-05-14T20:36:03.552Z,99246.84
2018-05-14T20:37:39.905Z,99245.31
2018-05-14T20:39:15.285Z,99247.41
2018-05-14T20:40:50.501Z,99251.38
2018-05-14T20:42:25.611Z,99251.77
2018-05-14T20:44:00.688Z,99257.47
2018-05-14T20:45:36.413Z,99254.89
2018-05-14T20:47:13.813Z,99256.22
2018-05-14T20:48:55.161Z,99258.36
2018-05-14T20:50:30.623Z,99255.34
2018-05-14T20:52:05.994Z,99258.25
2018-05-14T20:53:41.044Z,99257.41